Time;durP1;ratioP1;P1;durP2;ratioP2;P2;SDS_P1;SDS_P2;PMS_P1;PMS_P2;Temp;Humidity;BMP_temperature;BMP_pressure;BME280_temperature;BME280_humidity;BME280_pressure;Samples;Min_cycle;Max_cycle;Signal;HPM_P1;HPM_P2
2022/05/26 00:00:21;;;;;;;3.03;2.30;;;18.40;78.80;;;;;;6145522;23;20447;-85
2022/05/26 00:02:48;;;;;;;1.83;1.13;;;18.30;79.30;;;;;;6139536;23;20426;-85
2022/05/26 00:05:14;;;;;;;3.50;1.10;;;18.30;80.00;;;;;;6112577;23;20427;-86
2022/05/26 00:07:43;;;;;;;2.10;1.03;;;18.30;80.60;;;;;;6139406;23;20475;-86
2022/05/26 00:10:10;;;;;;;1.40;1.30;;;18.40;80.90;;;;;;6112793;23;20446;-86
2022/05/26 00:12:38;;;;;;;1.63;1.23;;;18.30;81.20;;;;;;6113640;23;20710;-89
2022/05/26 00:15:05;;;;;;;1.63;1.00;;;18.30;81.50;;;;;;6140386;23;20415;-87
2022/05/26 00:17:32;;;;;;;1.63;0.90;;;18.20;82.20;;;;;;6145328;23;20462;-86
2022/05/26 00:20:02;;;;;;;3.07;1.07;;;18.30;82.60;;;;;;6140081;23;20414;-85
2022/05/26 00:22:30;;;;;;;9.97;1.20;;;18.30;83.00;;;;;;6114562;23;20404;-87
2022/05/26 00:25:01;;;;;;;1.93;0.70;;;18.20;83.20;;;;;;6114144;23;20435;-85
2022/05/26 00:27:28;;;;;;;2.20;1.40;;;18.20;83.50;;;;;;6140249;23;20478;-86
2022/05/26 00:29:55;;;;;;;1.57;0.80;;;18.20;83.70;;;;;;6114527;23;20519;-85
2022/05/26 00:32:29;;;;;;;2.57;0.80;;;18.30;84.10;;;;;;6115049;23;20434;-87
2022/05/26 00:35:01;;;;;;;4.83;0.80;;;18.20;84.10;;;;;;6117580;23;20899;-86
2022/05/26 00:37:29;;;;;;;2.50;0.90;;;18.30;84.50;;;;;;6115369;23;20427;-87
2022/05/26 00:39:56;;;;;;;2.17;0.90;;;18.20;84.90;;;;;;6115822;23;20888;-85
2022/05/26 00:42:23;;;;;;;1.63;1.00;;;18.30;85.70;;;;;;6118915;23;20847;-86
2022/05/26 00:44:50;;;;;;;2.40;0.80;;;18.20;86.50;;;;;;6126197;23;20426;-87
2022/05/26 00:47:23;;;;;;;1.90;1.00;;;18.10;87.00;;;;;;6149460;23;20446;-87
2022/05/26 00:50:06;;;;;;;2.50;0.90;;;18.10;88.10;;;;;;6103385;23;20420;-87
2022/05/26 00:52:42;;;;;;;1.07;0.80;;;17.90;89.30;;;;;;6144134;23;20416;-87
2022/05/26 00:55:16;;;;;;;1.40;1.00;;;17.90;90.10;;;;;;6122393;23;20395;-85
2022/05/26 00:57:48;;;;;;;2.43;2.23;;;18.00;90.30;;;;;;6126401;23;20434;-85
2022/05/26 01:00:19;;;;;;;3.63;1.10;;;18.00;90.60;;;;;;6128347;23;20415;-89
2022/05/26 01:02:59;;;;;;;0.70;0.70;;;17.90;90.60;;;;;;6153774;23;20431;-87
2022/05/26 01:05:31;;;;;;;2.60;1.00;;;18.10;90.60;;;;;;6153572;23;20419;-87
2022/05/26 01:07:59;;;;;;;0.70;0.70;;;18.00;90.70;;;;;;6128455;23;20466;-85
2022/05/26 01:10:26;;;;;;;0.90;0.80;;;18.00;90.80;;;;;;6154023;23;20407;-88
2022/05/26 01:13:02;;;;;;;0.90;0.90;;;18.00;90.80;;;;;;6128627;23;20443;-86
2022/05/26 01:15:37;;;;;;;1.10;0.90;;;17.90;91.00;;;;;;6153046;23;20431;-86
2022/05/26 01:18:33;;;;;;;3.23;0.97;;;17.80;91.20;;;;;;6128668;23;20447;-86
2022/05/26 01:21:15;;;;;;;1.00;0.70;;;17.80;91.50;;;;;;6152647;23;20412;-85
2022/05/26 01:24:05;;;;;;;0.70;0.70;;;17.80;91.60;;;;;;6128543;23;20400;-88
2022/05/26 01:27:17;;;;;;;1.90;0.87;;;17.80;91.80;;;;;;6134515;23;20432;-88
2022/05/26 01:30:11;;;;;;;1.10;0.90;;;17.80;92.10;;;;;;6153903;23;20500;-89
2022/05/26 01:33:16;;;;;;;2.80;1.20;;;17.70;92.30;;;;;;6128586;23;20392;-89
2022/05/26 01:36:13;;;;;;;1.23;1.03;;;17.70;92.40;;;;;;6141752;23;20443;-84
2022/05/26 01:39:06;;;;;;;0.77;0.73;;;18.00;92.20;;;;;;6119715;23;20919;-86
2022/05/26 01:42:14;;;;;;;1.33;0.83;;;17.70;92.60;;;;;;6101678;23;20411;-86
2022/05/26 01:45:11;;;;;;;1.90;0.97;;;17.60;93.20;;;;;;6114760;23;20412;-86
2022/05/26 01:48:14;;;;;;;1.80;0.80;;;17.50;93.40;;;;;;6121038;23;20541;-85
2022/05/26 01:50:55;;;;;;;1.07;0.80;;;17.40;93.70;;;;;;6116199;23;20447;-85
2022/05/26 01:53:43;;;;;;;2.40;0.90;;;17.40;94.00;;;;;;6116705;23;20388;-86
2022/05/26 01:56:21;;;;;;;2.10;0.70;;;17.40;94.10;;;;;;6139188;23;20419;-86
2022/05/26 01:59:11;;;;;;;1.13;0.90;;;17.50;94.10;;;;;;6139077;23;20479;-87
2022/05/26 02:01:42;;;;;;;3.30;0.87;;;17.50;94.10;;;;;;6139688;23;20468;-85
2022/05/26 02:04:19;;;;;;;2.93;1.30;;;17.50;94.20;;;;;;6115692;23;20422;-84
2022/05/26 02:06:52;;;;;;;1.93;1.10;;;17.50;94.10;;;;;;6088941;23;20462;-83
2022/05/26 02:09:32;;;;;;;1.60;0.90;;;17.40;94.20;;;;;;6116147;23;20400;-84
2022/05/26 02:12:38;;;;;;;1.53;1.27;;;17.40;94.70;;;;;;6114930;23;20487;-85
2022/05/26 02:15:16;;;;;;;3.90;1.20;;;17.40;94.50;;;;;;6115813;23;20438;-87
2022/05/26 02:18:02;;;;;;;2.20;1.10;;;17.40;94.50;;;;;;6114659;23;20451;-86
2022/05/26 02:20:53;;;;;;;3.80;1.87;;;17.40;94.80;;;;;;6113883;23;20494;-86
2022/05/26 02:23:54;;;;;;;1.53;0.90;;;17.40;94.80;;;;;;6114997;23;20395;-86
2022/05/26 02:26:24;;;;;;;3.00;0.70;;;17.40;94.70;;;;;;6142314;23;20415;-88
2022/05/26 02:31:42;;;;;;;1.67;1.17;;;17.60;94.30;;;;;;6149067;23;20419;-87
2022/05/26 02:34:09;;;;;;;1.60;1.20;;;17.50;94.60;;;;;;6139496;23;20426;-87
2022/05/26 02:36:38;;;;;;;1.57;1.00;;;17.50;94.80;;;;;;6139125;23;20439;-87
2022/05/26 02:39:08;;;;;;;2.67;1.37;;;17.50;94.90;;;;;;6115924;23;20389;-87
2022/05/26 02:41:36;;;;;;;3.57;1.50;;;17.50;95.10;;;;;;6137902;23;20642;-87
2022/05/26 02:44:05;;;;;;;3.07;1.70;;;17.50;95.10;;;;;;6138571;23;20495;-86
2022/05/26 02:46:52;;;;;;;2.30;1.20;;;17.50;95.00;;;;;;6112031;23;20429;-87
2022/05/26 02:49:53;;;;;;;1.97;1.50;;;17.40;95.10;;;;;;6111731;23;20419;-86
2022/05/26 02:52:45;;;;;;;1.70;1.00;;;17.40;95.40;;;;;;6137739;23;20414;-86
2022/05/26 02:55:43;;;;;;;2.20;1.20;;;17.40;95.40;;;;;;6136460;23;20404;-85
2022/05/26 02:58:36;;;;;;;3.00;1.37;;;17.50;95.40;;;;;;6107347;23;20439;-85
2022/05/26 03:01:05;;;;;;;2.70;1.40;;;17.50;95.50;;;;;;6136135;23;20440;-85
2022/05/26 03:03:56;;;;;;;5.43;1.20;;;17.50;95.40;;;;;;6136136;23;20415;-86
2022/05/26 03:07:03;;;;;;;2.43;0.97;;;17.50;95.50;;;;;;6114271;23;20440;-85
2022/05/26 03:09:37;;;;;;;1.07;0.80;;;17.50;95.60;;;;;;6102512;23;20412;-85
2022/05/26 03:12:05;;;;;;;1.90;1.00;;;17.50;95.60;;;;;;6143449;23;20419;-87
2022/05/26 03:14:32;;;;;;;2.30;1.00;;;17.40;95.50;;;;;;6141792;23;20407;-86
2022/05/26 03:17:08;;;;;;;2.40;1.50;;;17.40;95.80;;;;;;6117680;23;20439;-85
2022/05/26 03:19:35;;;;;;;3.80;1.37;;;17.30;96.10;;;;;;6115539;23;20416;-86
2022/05/26 03:22:02;;;;;;;1.17;1.07;;;17.30;96.40;;;;;;6140944;23;20408;-87
2022/05/26 03:24:29;;;;;;;3.17;1.20;;;17.30;96.60;;;;;;6117571;23;20442;-87
2022/05/26 03:26:56;;;;;;;3.50;1.10;;;17.20;96.70;;;;;;6118423;23;20424;-86
2022/05/26 03:29:31;;;;;;;2.43;1.17;;;17.20;97.10;;;;;;6139933;23;20476;-85
2022/05/26 03:32:01;;;;;;;3.37;1.20;;;17.30;97.20;;;;;;6114421;23;20430;-86
2022/05/26 03:42:49;;;;;;;2.90;1.20;;;17.30;98.60;;;;;;6140039;23;20399;-86
2022/05/26 03:45:22;;;;;;;2.40;1.40;;;17.30;99.40;;;;;;6114171;23;20488;-87
2022/05/26 03:48:03;;;;;;;2.80;1.83;;;17.30;99.50;;;;;;6138372;23;21125;-86
2022/05/26 03:50:30;;;;;;;3.43;1.60;;;17.30;99.50;;;;;;6120485;23;20392;-87
2022/05/26 03:53:00;;;;;;;2.87;1.47;;;17.30;99.70;;;;;;6143766;23;20416;-85
2022/05/26 03:55:26;;;;;;;2.60;1.63;;;17.20;99.40;;;;;;6115294;23;20410;-87
2022/05/26 03:58:03;;;;;;;6.00;1.73;;;17.30;99.70;;;;;;6119516;23;20450;-87
2022/05/26 04:00:31;;;;;;;3.40;1.83;;;17.30;99.90;;;;;;6121417;23;20800;-84
2022/05/26 04:03:02;;;;;;;2.30;1.80;;;17.30;99.70;;;;;;6110044;23;20419;-83
2022/05/26 04:05:36;;;;;;;4.23;1.77;;;17.30;99.40;;;;;;6143065;23;20395;-85
2022/05/26 04:08:06;;;;;;;3.10;1.47;;;17.20;99.50;;;;;;6121174;23;20448;-85
2022/05/26 04:10:36;;;;;;;2.60;1.40;;;17.20;99.60;;;;;;6143649;23;20442;-84
2022/05/26 04:13:11;;;;;;;4.30;1.80;;;17.30;99.90;;;;;;6119204;23;20488;-84
2022/05/26 04:15:38;;;;;;;1.50;1.40;;;17.30;99.40;;;;;;6116636;23;20458;-86
2022/05/26 04:18:14;;;;;;;1.73;1.30;;;17.20;99.20;;;;;;6136937;23;20459;-83
2022/05/26 04:20:41;;;;;;;1.70;1.60;;;17.30;99.30;;;;;;6111676;23;20399;-84
2022/05/26 04:23:15;;;;;;;4.87;1.93;;;17.30;99.20;;;;;;6113258;23;20408;-84
2022/05/26 04:25:45;;;;;;;3.73;1.63;;;17.30;99.40;;;;;;6141826;23;20463;-87
2022/05/26 04:28:19;;;;;;;1.97;1.77;;;17.30;99.00;;;;;;6114839;23;20494;-85
2022/05/26 04:30:46;;;;;;;4.30;2.00;;;17.20;99.10;;;;;;6117764;23;20410;-85
2022/05/26 04:33:18;;;;;;;6.43;2.33;;;17.10;99.20;;;;;;6095337;23;20422;-85
2022/05/26 04:35:51;;;;;;;3.50;2.00;;;17.10;99.30;;;;;;6122106;23;20404;-85
2022/05/26 04:38:20;;;;;;;2.57;2.03;;;17.20;99.30;;;;;;6139806;23;20805;-85
2022/05/26 04:41:02;;;;;;;2.30;1.87;;;17.10;99.20;;;;;;6147196;23;20443;-84
2022/05/26 04:43:41;;;;;;;5.17;1.93;;;17.10;99.30;;;;;;6137143;23;20403;-85
2022/05/26 04:46:10;;;;;;;3.27;1.80;;;17.20;99.30;;;;;;6137130;23;20411;-84
2022/05/26 04:48:45;;;;;;;6.37;2.97;;;17.20;99.20;;;;;;6138058;23;20455;-84
2022/05/26 04:51:12;;;;;;;2.90;2.30;;;17.20;99.10;;;;;;6138323;23;20490;-84
2022/05/26 04:53:45;;;;;;;7.87;2.07;;;17.20;99.10;;;;;;6141796;23;20459;-85
2022/05/26 04:56:12;;;;;;;2.10;1.47;;;17.30;99.00;;;;;;6138365;23;20502;-85
2022/05/26 04:58:39;;;;;;;4.90;1.80;;;17.30;98.90;;;;;;6144174;23;20427;-86
2022/05/26 05:01:15;;;;;;;1.87;1.77;;;17.20;98.90;;;;;;6153839;23;20412;-88
2022/05/26 05:03:42;;;;;;;6.00;3.60;;;17.20;99.00;;;;;;6102943;23;20422;-83
2022/05/26 05:06:18;;;;;;;2.63;2.03;;;17.20;99.00;;;;;;6118739;23;20909;-82
2022/05/26 05:08:45;;;;;;;4.53;2.37;;;17.20;99.10;;;;;;6116678;23;20539;-87
2022/05/26 05:11:15;;;;;;;6.53;2.40;;;17.20;99.10;;;;;;6125434;23;20458;-84
2022/05/26 05:13:45;;;;;;;5.97;2.70;;;17.20;99.10;;;;;;6141987;23;20380;-83
2022/05/26 05:16:27;;;;;;;4.33;3.77;;;17.10;99.00;;;;;;6140261;23;20963;-84
2022/05/26 05:19:06;;;;;;;3.03;2.30;;;17.10;99.20;;;;;;6114864;23;20416;-85
2022/05/26 05:21:41;;;;;;;6.00;3.57;;;17.20;99.10;;;;;;6113262;23;20396;-84
2022/05/26 05:24:28;;;;;;;3.60;2.93;;;17.20;99.10;;;;;;6139914;23;20459;-85
2022/05/26 05:27:01;;;;;;;4.63;3.07;;;17.20;99.00;;;;;;6139475;23;20475;-85
2022/05/26 05:29:37;;;;;;;4.50;2.90;;;17.20;99.00;;;;;;6138319;23;20466;-87
2022/05/26 05:32:17;;;;;;;4.37;2.90;;;17.20;99.10;;;;;;6113804;23;20407;-85
2022/05/26 05:35:03;;;;;;;3.60;2.63;;;17.20;98.90;;;;;;6113429;23;20384;-87
2022/05/26 05:37:38;;;;;;;7.07;3.27;;;17.30;98.90;;;;;;6113614;23;20526;-86
2022/05/26 05:40:13;;;;;;;3.83;3.00;;;17.40;98.80;;;;;;6139531;23;20399;-85
2022/05/26 05:42:42;;;;;;;6.40;3.47;;;17.40;98.50;;;;;;6140812;23;20421;-85
2022/05/26 05:45:09;;;;;;;4.00;2.60;;;17.30;98.50;;;;;;6140885;23;20411;-86
2022/05/26 05:47:36;;;;;;;4.20;2.93;;;17.40;98.50;;;;;;6112489;23;20499;-85
2022/05/26 05:50:11;;;;;;;5.40;2.70;;;17.40;98.30;;;;;;6114278;23;20472;-85
2022/05/26 05:52:40;;;;;;;8.10;3.00;;;17.40;98.30;;;;;;6114100;23;20448;-85
2022/05/26 05:55:10;;;;;;;4.80;2.97;;;17.40;98.30;;;;;;6129695;23;20412;-86
2022/05/26 05:57:42;;;;;;;5.27;3.13;;;17.40;98.30;;;;;;6129459;23;20439;-87
2022/05/26 06:00:12;;;;;;;6.20;2.97;;;17.50;98.20;;;;;;6128967;23;20406;-88
2022/05/26 06:02:47;;;;;;;4.80;3.27;;;17.50;98.10;;;;;;6151397;23;20479;-85
2022/05/26 06:05:14;;;;;;;8.47;4.40;;;17.60;98.50;;;;;;6152432;23;20428;-90
2022/05/26 06:07:49;;;;;;;9.33;4.10;;;17.60;97.90;;;;;;6148538;23;20431;-84
2022/05/26 06:10:16;;;;;;;5.17;3.03;;;17.70;98.00;;;;;;6115391;23;20391;-84
2022/05/26 06:12:46;;;;;;;4.93;3.13;;;17.70;97.80;;;;;;6108202;23;20419;-86
2022/05/26 06:15:13;;;;;;;6.07;3.70;;;17.80;97.80;;;;;;6109571;23;20439;-82
2022/05/26 06:17:40;;;;;;;6.23;3.30;;;17.80;97.80;;;;;;6135733;23;21254;-84
2022/05/26 06:20:09;;;;;;;5.00;3.30;;;17.80;97.70;;;;;;6108243;23;20422;-88
2022/05/26 06:22:44;;;;;;;7.50;3.80;;;17.90;97.50;;;;;;6108880;23;20419;-84
2022/05/26 06:25:13;;;;;;;6.30;3.63;;;17.90;97.50;;;;;;6108449;23;20443;-84
2022/05/26 06:30:30;;;;;;;8.37;4.03;;;18.00;97.60;;;;;;6135378;23;20404;-85
2022/05/26 06:38:40;;;;;;;4.27;3.30;;;18.30;96.90;;;;;;6136340;23;20459;-84
2022/05/26 06:43:56;;;;;;;4.83;3.23;;;18.30;96.70;;;;;;6139350;23;20479;-84
2022/05/26 06:46:24;;;;;;;6.43;3.63;;;18.40;96.80;;;;;;6146953;23;20407;-86
2022/05/26 06:48:52;;;;;;;5.57;3.40;;;18.40;96.60;;;;;;6143559;23;20450;-87
2022/05/26 06:51:29;;;;;;;4.10;3.70;;;18.40;96.50;;;;;;6146837;23;20474;-87
2022/05/26 06:53:56;;;;;;;8.77;4.30;;;18.40;96.40;;;;;;6152937;23;20395;-87
2022/05/26 06:56:25;;;;;;;6.73;4.03;;;18.60;96.10;;;;;;6153333;23;20387;-88
2022/05/26 06:58:52;;;;;;;13.20;4.80;;;18.70;95.60;;;;;;6124772;23;20474;-85
2022/05/26 07:01:21;;;;;;;9.00;4.40;;;18.70;95.20;;;;;;6115576;23;20464;-84
2022/05/26 07:03:48;;;;;;;6.70;4.03;;;18.70;95.30;;;;;;6114521;23;20407;-84
2022/05/26 07:06:21;;;;;;;4.90;3.70;;;18.80;95.20;;;;;;6114756;23;20419;-85
2022/05/26 07:08:49;;;;;;;6.47;3.90;;;19.00;95.10;;;;;;6134291;23;20443;-84
2022/05/26 07:11:17;;;;;;;6.97;3.40;;;19.00;94.90;;;;;;6134125;23;20546;-85
2022/05/26 07:13:48;;;;;;;8.40;4.07;;;19.00;94.70;;;;;;6144973;23;20423;-85
2022/05/26 07:16:15;;;;;;;5.73;3.73;;;19.10;94.80;;;;;;6119266;23;20431;-86
2022/05/26 07:18:42;;;;;;;4.47;4.07;;;19.20;94.70;;;;;;6118483;23;20922;-85
2022/05/26 07:21:11;;;;;;;5.60;4.50;;;19.20;94.10;;;;;;6115137;23;20408;-86
2022/05/26 07:23:38;;;;;;;7.27;4.40;;;19.30;94.00;;;;;;6142469;23;20431;-87
2022/05/26 07:26:09;;;;;;;6.53;3.70;;;19.40;94.10;;;;;;6115925;23;20460;-85
2022/05/26 07:28:37;;;;;;;6.63;4.20;;;19.40;93.70;;;;;;6141547;23;20444;-87
2022/05/26 07:31:14;;;;;;;6.57;4.23;;;19.20;93.70;;;;;;6142061;23;20407;-85
2022/05/26 07:33:47;;;;;;;5.00;3.97;;;19.10;94.00;;;;;;6126847;23;20414;-87
2022/05/26 07:41:33;;;;;;;4.80;4.27;;;18.80;94.30;;;;;;6113201;23;20416;-86
2022/05/26 07:44:05;;;;;;;6.93;4.23;;;19.10;94.10;;;;;;6113515;23;20409;-85
2022/05/26 07:46:40;;;;;;;4.80;3.93;;;19.30;93.80;;;;;;6112290;23;20413;-86
2022/05/26 07:49:12;;;;;;;5.80;3.40;;;19.60;93.50;;;;;;6111836;23;20428;-85
2022/05/26 07:51:44;;;;;;;5.30;3.80;;;19.80;92.70;;;;;;6086386;23;20404;-85
2022/05/26 07:54:11;;;;;;;6.90;4.17;;;19.90;92.20;;;;;;6113071;23;20412;-88
2022/05/26 07:56:46;;;;;;;7.07;3.90;;;20.10;91.90;;;;;;6087312;23;20483;-87
2022/05/26 07:59:17;;;;;;;7.63;3.93;;;20.00;91.90;;;;;;6109386;23;20424;-85
2022/05/26 08:01:45;;;;;;;8.03;4.30;;;20.40;91.20;;;;;;6110609;23;20463;-87
2022/05/26 08:04:12;;;;;;;5.83;3.87;;;20.30;91.60;;;;;;6087975;23;20413;-86
2022/05/26 08:06:39;;;;;;;4.87;3.30;;;20.40;91.80;;;;;;6087129;23;20432;-85
2022/05/26 08:09:20;;;;;;;7.13;4.07;;;20.40;91.00;;;;;;6114480;23;20511;-87
2022/05/26 08:11:47;;;;;;;6.30;3.43;;;20.40;90.60;;;;;;6111883;23;21053;-87
2022/05/26 08:14:19;;;;;;;4.80;3.10;;;20.40;90.60;;;;;;6111988;23;20431;-86
2022/05/26 08:16:47;;;;;;;6.20;3.83;;;20.40;90.60;;;;;;6112211;23;20432;-88
2022/05/26 08:19:16;;;;;;;4.10;3.23;;;20.60;90.40;;;;;;6116004;23;20459;-86
2022/05/26 08:21:44;;;;;;;6.60;3.70;;;20.60;89.90;;;;;;6119982;23;20464;-85
2022/05/26 08:24:11;;;;;;;3.83;3.13;;;20.60;88.60;;;;;;6094478;23;20424;-85
2022/05/26 08:26:38;;;;;;;7.20;3.60;;;20.60;88.60;;;;;;6087163;23;20428;-84
2022/05/26 08:29:05;;;;;;;10.57;3.87;;;21.00;88.30;;;;;;6111671;23;20504;-86
2022/05/26 08:31:32;;;;;;;6.30;4.33;;;21.50;87.80;;;;;;6111113;23;20464;-84
2022/05/26 08:33:59;;;;;;;7.20;4.40;;;21.30;86.30;;;;;;6111147;23;20416;-86
2022/05/26 08:36:33;;;;;;;7.73;4.30;;;20.80;87.00;;;;;;6110974;23;20413;-85
2022/05/26 08:39:00;;;;;;;7.80;4.70;;;20.50;88.70;;;;;;6062875;23;20415;-84
2022/05/26 08:41:36;;;;;;;7.30;4.30;;;20.40;89.30;;;;;;6111735;23;20466;-83
2022/05/26 08:44:27;;;;;;;5.60;3.70;;;20.50;89.30;;;;;;6093129;23;20388;-89
2022/05/26 08:47:07;;;;;;;4.23;2.90;;;20.30;87.60;;;;;;6088857;23;20499;-83
2022/05/26 08:49:42;;;;;;;6.63;4.20;;;20.80;86.10;;;;;;6102482;23;20424;-84
2022/05/26 08:52:29;;;;;;;4.47;4.07;;;21.00;84.00;;;;;;6080314;23;20499;-84
2022/05/26 08:55:21;;;;;;;5.40;3.77;;;21.30;83.10;;;;;;6084861;23;20415;-87
2022/05/26 08:58:13;;;;;;;3.90;3.00;;;21.60;82.30;;;;;;6075512;23;20428;-85
2022/05/26 09:03:34;;;;;;;3.80;3.37;;;21.50;81.40;;;;;;6129007;23;20435;-84
2022/05/26 09:06:12;;;;;;;7.03;4.50;;;21.30;82.30;;;;;;6102735;23;20483;-84
2022/05/26 09:14:44;;;;;;;7.33;3.20;;;21.40;78.50;;;;;;6098592;23;20425;-85
2022/05/26 09:17:14;;;;;;;10.70;3.57;;;22.20;78.50;;;;;;6077841;23;20437;-86
2022/05/26 09:19:44;;;;;;;6.67;4.60;;;23.10;74.60;;;;;;6073549;23;20451;-85
2022/05/26 09:22:30;;;;;;;4.53;3.03;;;23.80;73.10;;;;;;6074412;23;20416;-88
2022/05/26 09:25:02;;;;;;;6.73;4.73;;;23.60;73.60;;;;;;6097436;23;20438;-85
2022/05/26 09:27:36;;;;;;;5.47;4.17;;;23.40;73.40;;;;;;6072140;23;20440;-85
2022/05/26 09:30:33;;;;;;;3.80;3.50;;;22.80;74.20;;;;;;6074707;23;20467;-84
2022/05/26 09:33:17;;;;;;;5.60;3.23;;;22.70;74.00;;;;;;6100855;23;20389;-87
2022/05/26 09:35:44;;;;;;;3.67;2.77;;;23.00;72.70;;;;;;6076375;23;20409;-84
2022/05/26 09:38:18;;;;;;;4.30;2.63;;;23.50;71.90;;;;;;6100314;23;20457;-86
2022/05/26 09:40:48;;;;;;;5.57;3.03;;;23.80;70.10;;;;;;6075071;23;20473;-85
2022/05/26 09:43:23;;;;;;;4.80;2.20;;;24.30;68.20;;;;;;6079351;23;20425;-88
2022/05/26 09:46:01;;;;;;;5.30;2.57;;;24.30;67.00;;;;;;6078153;23;20500;-85
2022/05/26 09:48:36;;;;;;;3.13;2.60;;;24.90;65.20;;;;;;6101198;23;20438;-83
2022/05/26 09:51:23;;;;;;;4.33;2.67;;;24.80;62.70;;;;;;6075503;23;20477;-82
2022/05/26 09:53:58;;;;;;;4.03;3.07;;;24.80;63.40;;;;;;6074091;23;20420;-83
2022/05/26 09:56:41;;;;;;;4.30;2.57;;;24.80;63.00;;;;;;6076170;23;20464;-85
2022/05/26 09:59:32;;;;;;;4.63;2.27;;;24.70;63.20;;;;;;6077834;23;20397;-86
2022/05/26 10:02:04;;;;;;;4.50;2.60;;;25.00;61.20;;;;;;6104800;23;20447;-84
2022/05/26 10:04:41;;;;;;;3.10;1.97;;;24.40;63.00;;;;;;6100580;23;20436;-84
2022/05/26 10:07:11;;;;;;;4.50;2.10;;;24.60;62.20;;;;;;6100524;23;20503;-84
2022/05/26 10:09:53;;;;;;;6.40;2.70;;;25.30;60.40;;;;;;6100586;23;20851;-85
2022/05/26 10:12:46;;;;;;;5.77;2.57;;;26.10;59.00;;;;;;6099684;23;20423;-85
2022/05/26 10:15:39;;;;;;;5.00;2.83;;;26.30;58.10;;;;;;6075871;23;20429;-88
2022/05/26 10:18:55;;;;;;;4.03;2.50;;;25.90;58.30;;;;;;6077803;23;20558;-85
2022/05/26 10:21:50;;;;;;;5.37;3.10;;;25.50;59.00;;;;;;6099782;23;20427;-83
2022/05/26 10:24:24;;;;;;;4.93;3.50;;;24.70;60.90;;;;;;6105645;23;20817;-85
2022/05/26 10:27:01;;;;;;;3.40;2.20;;;24.40;61.80;;;;;;6115636;23;20458;-89
2022/05/26 10:29:47;;;;;;;4.97;2.43;;;23.90;63.20;;;;;;6089674;23;20445;-87
2022/05/26 10:32:22;;;;;;;5.73;2.87;;;23.60;65.30;;;;;;6115313;23;20507;-87
2022/05/26 10:35:20;;;;;;;5.50;2.50;;;24.00;63.70;;;;;;6099120;23;20439;-85
2022/05/26 10:38:21;;;;;;;4.93;3.00;;;24.00;63.30;;;;;;6069427;23;20436;-84
2022/05/26 10:41:07;;;;;;;4.43;2.63;;;24.60;62.60;;;;;;6098586;23;20416;-86
2022/05/26 10:43:45;;;;;;;4.57;2.23;;;26.30;58.20;;;;;;6068554;23;20388;-86
2022/05/26 10:46:13;;;;;;;4.40;2.73;;;25.80;57.00;;;;;;6066283;23;20408;-86
2022/05/26 10:49:03;;;;;;;4.33;2.30;;;25.90;57.60;;;;;;6065500;23;20471;-85
2022/05/26 10:51:39;;;;;;;4.20;2.50;;;25.10;58.70;;;;;;6089620;23;20444;-85
2022/05/26 10:54:27;;;;;;;6.70;2.63;;;24.50;59.90;;;;;;6067117;23;20472;-88
2022/05/26 10:57:16;;;;;;;3.10;2.17;;;24.00;60.70;;;;;;6095023;23;21005;-88
2022/05/26 10:59:47;;;;;;;4.43;1.87;;;23.40;60.40;;;;;;6090976;23;20427;-87
2022/05/26 11:02:19;;;;;;;3.07;2.70;;;23.40;59.10;;;;;;6062248;23;20498;-87
2022/05/26 11:04:59;;;;;;;5.53;2.17;;;24.00;57.50;;;;;;6061931;23;21249;-84
2022/05/26 11:07:34;;;;;;;3.83;2.00;;;24.70;56.90;;;;;;6062940;23;20456;-86
2022/05/26 11:10:11;;;;;;;4.57;2.00;;;25.20;56.10;;;;;;6064950;23;21016;-89
2022/05/26 11:12:57;;;;;;;5.93;2.37;;;25.30;56.10;;;;;;6068002;23;20405;-88
2022/05/26 11:18:48;;;;;;;5.50;2.90;;;24.50;57.80;;;;;;6066305;23;20430;-85
2022/05/26 11:21:24;;;;;;;4.60;2.30;;;23.90;59.50;;;;;;6056953;23;20426;-86
2022/05/26 11:23:51;;;;;;;5.47;3.20;;;23.70;59.90;;;;;;6068273;23;20415;-89
2022/05/26 11:26:40;;;;;;;8.63;2.30;;;23.60;59.20;;;;;;6066346;23;20431;-85
2022/05/26 11:29:20;;;;;;;2.50;1.70;;;23.50;58.60;;;;;;6067170;23;20617;-89
2022/05/26 11:37:41;;;;;;;6.60;1.87;;;22.70;60.30;;;;;;6068872;23;20437;-87
2022/05/26 11:40:12;;;;;;;4.70;1.93;;;23.10;60.30;;;;;;6070858;23;20501;-87
2022/05/26 11:42:57;;;;;;;7.30;1.90;;;23.70;58.70;;;;;;6070778;23;20469;-87
2022/05/26 11:45:33;;;;;;;3.40;1.63;;;24.20;57.80;;;;;;6067582;23;20619;-88
2022/05/26 11:48:05;;;;;;;1.70;1.30;;;24.10;57.80;;;;;;6068619;23;20501;-87
2022/05/26 11:50:59;;;;;;;4.03;1.60;;;24.20;56.20;;;;;;6069403;23;20441;-89
2022/05/26 11:53:48;;;;;;;4.50;2.30;;;24.40;55.50;;;;;;6069374;23;20472;-86
2022/05/26 11:56:30;;;;;;;2.80;1.60;;;24.90;55.20;;;;;;6070326;23;20477;-89
2022/05/26 11:59:26;;;;;;;6.83;2.00;;;25.00;55.20;;;;;;6071586;23;21305;-86
2022/05/26 12:01:59;;;;;;;3.57;2.00;;;24.60;56.00;;;;;;6077627;23;20444;-88
2022/05/26 12:04:35;;;;;;;5.23;2.33;;;24.30;56.30;;;;;;6080174;23;20393;-86
2022/05/26 12:07:14;;;;;;;3.10;2.03;;;24.10;55.40;;;;;;6079417;23;20515;-86
2022/05/26 12:09:58;;;;;;;2.37;1.67;;;23.80;56.00;;;;;;6077479;23;20456;-86
2022/05/26 12:12:33;;;;;;;2.50;1.77;;;23.90;56.20;;;;;;6076289;23;20408;-85
2022/05/26 12:15:14;;;;;;;4.87;2.00;;;24.10;56.40;;;;;;6100636;23;20444;-87
2022/05/26 12:17:48;;;;;;;3.40;2.00;;;23.80;56.80;;;;;;6097626;23;20495;-88
2022/05/26 12:20:15;;;;;;;3.00;2.03;;;23.30;56.00;;;;;;6099133;23;20435;-85
2022/05/26 12:22:54;;;;;;;4.60;1.70;;;23.30;56.90;;;;;;6074549;23;20428;-84
2022/05/26 12:25:26;;;;;;;3.20;1.90;;;23.30;56.80;;;;;;6079160;23;20842;-86
2022/05/26 12:28:15;;;;;;;3.97;2.00;;;23.40;56.80;;;;;;6076245;23;21062;-86
2022/05/26 12:30:44;;;;;;;2.10;1.90;;;23.70;56.80;;;;;;6099169;23;20444;-86
2022/05/26 12:33:19;;;;;;;3.03;2.23;;;23.90;56.20;;;;;;6075521;23;20416;-85
2022/05/26 12:36:23;;;;;;;2.90;2.40;;;23.80;56.40;;;;;;6073591;23;20421;-83
2022/05/26 12:39:25;;;;;;;3.23;2.70;;;23.90;56.20;;;;;;6088474;23;20404;-86
2022/05/26 12:42:08;;;;;;;4.50;2.20;;;24.20;54.90;;;;;;6117653;23;20470;-88
2022/05/26 12:44:44;;;;;;;5.90;2.40;;;24.10;55.00;;;;;;6116131;23;20397;-89
2022/05/26 12:47:16;;;;;;;2.87;2.43;;;23.90;55.60;;;;;;6080421;23;20432;-87
2022/05/26 12:50:15;;;;;;;3.50;2.40;;;23.80;56.20;;;;;;6102539;23;20656;-84
2022/05/26 12:53:08;;;;;;;4.90;2.20;;;23.60;56.90;;;;;;6069152;23;20408;-88
2022/05/26 12:55:50;;;;;;;3.80;2.70;;;23.70;57.20;;;;;;6067346;23;20474;-84
2022/05/26 12:58:25;;;;;;;3.93;2.30;;;24.10;55.30;;;;;;6071822;23;21360;-86
2022/05/26 13:00:59;;;;;;;4.57;2.40;;;24.20;55.00;;;;;;6091952;23;20539;-85
2022/05/26 13:03:36;;;;;;;3.57;2.70;;;24.10;54.70;;;;;;6063367;23;20435;-86
2022/05/26 13:06:26;;;;;;;3.73;2.60;;;24.00;54.10;;;;;;6063209;23;20440;-85
2022/05/26 13:09:13;;;;;;;6.20;2.90;;;23.80;54.60;;;;;;6064273;23;20468;-85
2022/05/26 13:11:48;;;;;;;4.30;2.80;;;23.70;55.00;;;;;;6065028;23;20441;-84
2022/05/26 13:14:23;;;;;;;3.57;2.30;;;23.80;55.40;;;;;;6070342;23;20503;-84
2022/05/26 13:17:01;;;;;;;5.40;2.43;;;23.80;55.00;;;;;;6064511;23;20439;-88
2022/05/26 13:19:28;;;;;;;4.03;3.00;;;23.80;55.30;;;;;;6070846;23;20393;-85
2022/05/26 13:21:58;;;;;;;4.20;2.80;;;23.90;55.00;;;;;;6071973;23;20424;-83
2022/05/26 13:24:29;;;;;;;4.20;3.43;;;24.00;55.00;;;;;;6071153;23;20457;-87
2022/05/26 13:27:08;;;;;;;5.03;2.93;;;24.30;54.90;;;;;;6072618;23;20429;-86
2022/05/26 13:29:40;;;;;;;3.53;3.10;;;24.40;54.70;;;;;;6080982;23;20409;-87
2022/05/26 13:34:56;;;;;;;3.17;2.87;;;24.90;53.40;;;;;;6076817;23;20410;-86
2022/05/26 13:37:31;;;;;;;3.10;2.67;;;24.60;53.30;;;;;;6073315;23;20533;-87
2022/05/26 13:40:18;;;;;;;6.73;3.80;;;24.50;54.00;;;;;;6068934;23;20427;-90
2022/05/26 13:42:50;;;;;;;4.60;3.70;;;24.70;53.60;;;;;;6067053;23;20413;-87
2022/05/26 13:45:29;;;;;;;2.70;2.50;;;24.50;53.60;;;;;;6066537;23;20452;-89
2022/05/26 13:48:49;;;;;;;4.37;2.97;;;24.50;54.00;;;;;;6066988;23;20417;-88
2022/05/26 13:51:41;;;;;;;4.43;2.93;;;24.70;53.90;;;;;;6068037;23;20445;-85
2022/05/26 13:54:29;;;;;;;2.90;2.60;;;24.80;53.90;;;;;;6091148;23;20471;-87
2022/05/26 13:57:21;;;;;;;4.00;2.47;;;24.50;53.90;;;;;;6066547;23;21244;-88
2022/05/26 13:59:54;;;;;;;3.50;2.60;;;24.40;54.60;;;;;;6067895;23;20484;-85
2022/05/26 14:02:28;;;;;;;2.33;2.10;;;24.40;55.00;;;;;;6071392;23;20457;-87
2022/05/26 14:05:23;;;;;;;3.53;2.77;;;24.50;55.00;;;;;;6072076;23;20492;-88
2022/05/26 14:08:02;;;;;;;3.83;2.50;;;24.40;54.20;;;;;;6071697;23;20441;-87
2022/05/26 14:10:55;;;;;;;2.90;2.27;;;24.40;54.70;;;;;;6070595;23;20448;-85
2022/05/26 14:13:36;;;;;;;3.47;2.80;;;24.40;54.70;;;;;;6071922;23;20473;-85
2022/05/26 14:16:04;;;;;;;2.77;2.07;;;24.40;55.00;;;;;;6068847;23;20410;-88
2022/05/26 14:18:54;;;;;;;3.20;2.00;;;24.30;55.00;;;;;;6069645;23;20426;-87
2022/05/26 14:21:35;;;;;;;6.50;1.90;;;24.30;55.00;;;;;;6079660;23;20484;-88